sensor_id;sensor_type;location;lat;lon;timestamp;pressure;altitude;pressure_sealevel;temperature;humidity
67109;BME280;54027;50.786;7.058;2024-01-30T00:00:21;102274.53;;;6.10;100.00
67109;BME280;54027;50.786;7.058;2024-01-30T00:02:46;102272.72;;;6.08;100.00
67109;BME280;54027;50.786;7.058;2024-01-30T00:05:12;102267.63;;;6.09;100.00
67109;BME280;54027;50.786;7.058;2024-01-30T00:07:37;102272.09;;;6.15;100.00
67109;BME280;54027;50.786;7.058;2024-01-30T00:10:03;102269.50;;;6.13;100.00
67109;BME280;54027;50.786;7.058;2024-01-30T00:12:28;102273.78;;;6.14;100.00
67109;BME280;54027;50.786;7.058;2024-01-30T00:14:53;102265.28;;;6.15;100.00
67109;BME280;54027;50.786;7.058;2024-01-30T00:17:19;102263.38;;;6.10;100.00
67109;BME280;54027;50.786;7.058;2024-01-30T00:19:46;102268.66;;;6.14;100.00
67109;BME280;54027;50.786;7.058;2024-01-30T00:22:11;102260.09;;;6.14;100.00
67109;BME280;54027;50.786;7.058;2024-01-30T00:24:36;102266.25;;;6.19;100.00
67109;BME280;54027;50.786;7.058;2024-01-30T00:27:02;102255.88;;;6.16;100.00
67109;BME280;54027;50.786;7.058;2024-01-30T00:29:27;102254.09;;;6.13;100.00
67109;BME280;54027;50.786;7.058;2024-01-30T00:31:56;102257.47;;;6.12;100.00
67109;BME280;54027;50.786;7.058;2024-01-30T00:34:21;102253.97;;;6.10;100.00
67109;BME280;54027;50.786;7.058;2024-01-30T00:36:47;102251.41;;;6.10;100.00
67109;BME280;54027;50.786;7.058;2024-01-30T00:39:12;102253.78;;;6.04;100.00
67109;BME280;54027;50.786;7.058;2024-01-30T00:41:37;102248.88;;;6.12;100.00
67109;BME280;54027;50.786;7.058;2024-01-30T00:44:03;102250.47;;;6.08;100.00
67109;BME280;54027;50.786;7.058;2024-01-30T00:46:28;102252.19;;;6.08;100.00
67109;BME280;54027;50.786;7.058;2024-01-30T00:48:54;102250.34;;;6.04;100.00
67109;BME280;54027;50.786;7.058;2024-01-30T00:51:19;102249.34;;;6.00;100.00
67109;BME280;54027;50.786;7.058;2024-01-30T00:53:45;102250.16;;;5.99;100.00
67109;BME280;54027;50.786;7.058;2024-01-30T00:56:10;102240.66;;;5.97;100.00
67109;BME280;54027;50.786;7.058;2024-01-30T00:58:36;102241.72;;;6.02;100.00
67109;BME280;54027;50.786;7.058;2024-01-30T01:01:01;102241.72;;;6.02;100.00
67109;BME280;54027;50.786;7.058;2024-01-30T01:03:27;102238.31;;;6.03;100.00
67109;BME280;54027;50.786;7.058;2024-01-30T01:05:52;102242.56;;;6.02;100.00
67109;BME280;54027;50.786;7.058;2024-01-30T01:08:18;102242.53;;;6.01;100.00
67109;BME280;54027;50.786;7.058;2024-01-30T01:10:43;102244.91;;;5.96;100.00
67109;BME280;54027;50.786;7.058;2024-01-30T01:13:08;102246.56;;;5.94;100.00
67109;BME280;54027;50.786;7.058;2024-01-30T01:15:34;102243.25;;;5.97;100.00
67109;BME280;54027;50.786;7.058;2024-01-30T01:18:00;102239.91;;;5.99;100.00
67109;BME280;54027;50.786;7.058;2024-01-30T01:20:25;102240.75;;;5.98;100.00
67109;BME280;54027;50.786;7.058;2024-01-30T01:22:50;102242.53;;;6.01;100.00
67109;BME280;54027;50.786;7.058;2024-01-30T01:25:17;102241.03;;;6.07;100.00
67109;BME280;54027;50.786;7.058;2024-01-30T01:27:43;102242.03;;;6.11;100.00
67109;BME280;54027;50.786;7.058;2024-01-30T01:30:10;102241.97;;;6.09;100.00
67109;BME280;54027;50.786;7.058;2024-01-30T01:32:36;102238.47;;;6.07;100.00
67109;BME280;54027;50.786;7.058;2024-01-30T01:35:03;102235.03;;;6.07;100.00
67109;BME280;54027;50.786;7.058;2024-01-30T01:37:31;102238.50;;;6.09;100.00
67109;BME280;54027;50.786;7.058;2024-01-30T01:39:56;102230.81;;;6.09;100.00
67109;BME280;54027;50.786;7.058;2024-01-30T01:42:21;102230.00;;;6.10;100.00
67109;BME280;54027;50.786;7.058;2024-01-30T01:44:47;102230.88;;;6.10;100.00
67109;BME280;54027;50.786;7.058;2024-01-30T01:47:13;102232.56;;;6.10;100.00
67109;BME280;54027;50.786;7.058;2024-01-30T01:49:39;102231.78;;;6.12;100.00
67109;BME280;54027;50.786;7.058;2024-01-30T01:52:05;102228.50;;;6.16;100.00
67109;BME280;54027;50.786;7.058;2024-01-30T01:54:30;102228.66;;;6.21;100.00
67109;BME280;54027;50.786;7.058;2024-01-30T01:56:56;102235.63;;;6.25;100.00
67109;BME280;54027;50.786;7.058;2024-01-30T01:59:23;102235.84;;;6.31;100.00
67109;BME280;54027;50.786;7.058;2024-01-30T02:01:49;102237.53;;;6.30;100.00
67109;BME280;54027;50.786;7.058;2024-01-30T02:04:15;102232.28;;;6.27;100.00
67109;BME280;54027;50.786;7.058;2024-01-30T02:06:41;102231.31;;;6.24;100.00
67109;BME280;54027;50.786;7.058;2024-01-30T02:09:07;102221.13;;;6.25;100.00
67109;BME280;54027;50.786;7.058;2024-01-30T02:11:34;102230.53;;;6.26;100.00
67109;BME280;54027;50.786;7.058;2024-01-30T02:14:03;102226.25;;;6.25;100.00
67109;BME280;54027;50.786;7.058;2024-01-30T02:16:29;102217.66;;;6.25;100.00
67109;BME280;54027;50.786;7.058;2024-01-30T02:18:55;102220.25;;;6.25;100.00
67109;BME280;54027;50.786;7.058;2024-01-30T02:21:20;102218.66;;;6.28;100.00
67109;BME280;54027;50.786;7.058;2024-01-30T02:23:49;102213.59;;;6.31;100.00
67109;BME280;54027;50.786;7.058;2024-01-30T02:26:15;102223.00;;;6.31;100.00
67109;BME280;54027;50.786;7.058;2024-01-30T02:28:41;102220.44;;;6.31;100.00
67109;BME280;54027;50.786;7.058;2024-01-30T02:31:06;102216.19;;;6.31;100.00
67109;BME280;54027;50.786;7.058;2024-01-30T02:33:32;102213.50;;;6.28;100.00
67109;BME280;54027;50.786;7.058;2024-01-30T02:35:57;102216.91;;;6.29;100.00
67109;BME280;54027;50.786;7.058;2024-01-30T02:38:22;102219.56;;;6.30;100.00
67109;BME280;54027;50.786;7.058;2024-01-30T02:40:52;102215.28;;;6.31;100.00
67109;BME280;54027;50.786;7.058;2024-01-30T02:43:17;102211.13;;;6.34;100.00
67109;BME280;54027;50.786;7.058;2024-01-30T02:45:43;102211.06;;;6.33;100.00
67109;BME280;54027;50.786;7.058;2024-01-30T02:48:08;102211.75;;;6.27;100.00
67109;BME280;54027;50.786;7.058;2024-01-30T02:50:34;102212.53;;;6.25;100.00
67109;BME280;54027;50.786;7.058;2024-01-30T02:53:00;102215.88;;;6.22;100.00
67109;BME280;54027;50.786;7.058;2024-01-30T02:55:25;102209.97;;;6.25;100.00
67109;BME280;54027;50.786;7.058;2024-01-30T02:57:50;102205.75;;;6.27;100.00
67109;BME280;54027;50.786;7.058;2024-01-30T03:00:16;102202.41;;;6.29;100.00
67109;BME280;54027;50.786;7.058;2024-01-30T03:02:41;102201.88;;;6.40;100.00
67109;BME280;54027;50.786;7.058;2024-01-30T03:05:07;102201.09;;;6.42;100.00
67109;BME280;54027;50.786;7.058;2024-01-30T03:07:33;102205.50;;;6.46;100.00
67109;BME280;54027;50.786;7.058;2024-01-30T03:09:59;102198.53;;;6.42;100.00
67109;BME280;54027;50.786;7.058;2024-01-30T03:12:24;102199.53;;;6.47;100.00
67109;BME280;54027;50.786;7.058;2024-01-30T03:14:50;102203.88;;;6.50;100.00
67109;BME280;54027;50.786;7.058;2024-01-30T03:17:15;102201.91;;;6.41;100.00
67109;BME280;54027;50.786;7.058;2024-01-30T03:19:41;102206.91;;;6.37;100.00
67109;BME280;54027;50.786;7.058;2024-01-30T03:22:06;102194.69;;;6.29;100.00
67109;BME280;54027;50.786;7.058;2024-01-30T03:24:32;102197.16;;;6.26;100.00
67109;BME280;54027;50.786;7.058;2024-01-30T03:26:57;102198.75;;;6.23;100.00
67109;BME280;54027;50.786;7.058;2024-01-30T03:29:22;102198.84;;;6.26;100.00
67109;BME280;54027;50.786;7.058;2024-01-30T03:31:48;102200.69;;;6.30;100.00
67109;BME280;54027;50.786;7.058;2024-01-30T03:34:13;102194.66;;;6.28;100.00
67109;BME280;54027;50.786;7.058;2024-01-30T03:36:38;102190.13;;;6.21;100.00
67109;BME280;54027;50.786;7.058;2024-01-30T03:39:04;102191.69;;;6.16;100.00
67109;BME280;54027;50.786;7.058;2024-01-30T03:41:29;102194.25;;;6.16;100.00
67109;BME280;54027;50.786;7.058;2024-01-30T03:43:55;102195.16;;;6.16;100.00
67109;BME280;54027;50.786;7.058;2024-01-30T03:46:20;102184.81;;;6.15;100.00
67109;BME280;54027;50.786;7.058;2024-01-30T03:48:45;102190.97;;;6.20;100.00
67109;BME280;54027;50.786;7.058;2024-01-30T03:51:11;102187.47;;;6.18;100.00
67109;BME280;54027;50.786;7.058;2024-01-30T03:53:41;102186.78;;;6.23;100.00
67109;BME280;54027;50.786;7.058;2024-01-30T03:56:07;102187.06;;;6.31;100.00
67109;BME280;54027;50.786;7.058;2024-01-30T03:58:33;102195.94;;;6.41;100.00
67109;BME280;54027;50.786;7.058;2024-01-30T04:00:58;102183.41;;;6.51;100.00
67109;BME280;54027;50.786;7.058;2024-01-30T04:03:24;102182.97;;;6.64;100.00
67109;BME280;54027;50.786;7.058;2024-01-30T04:05:51;102173.97;;;6.80;100.00
67109;BME280;54027;50.786;7.058;2024-01-30T04:08:17;102175.84;;;6.85;100.00
67109;BME280;54027;50.786;7.058;2024-01-30T04:10:43;102182.22;;;6.98;100.00
67109;BME280;54027;50.786;7.058;2024-01-30T04:13:08;102179.03;;;7.07;100.00
67109;BME280;54027;50.786;7.058;2024-01-30T04:15:34;102176.81;;;7.17;100.00
67109;BME280;54027;50.786;7.058;2024-01-30T04:17:59;102179.22;;;7.13;100.00
67109;BME280;54027;50.786;7.058;2024-01-30T04:20:25;102168.34;;;7.21;100.00
67109;BME280;54027;50.786;7.058;2024-01-30T04:22:51;102168.44;;;7.24;100.00
67109;BME280;54027;50.786;7.058;2024-01-30T04:25:16;102166.88;;;7.29;100.00
67109;BME280;54027;50.786;7.058;2024-01-30T04:27:42;102166.75;;;7.25;100.00
67109;BME280;54027;50.786;7.058;2024-01-30T04:30:07;102169.31;;;7.25;100.00
67109;BME280;54027;50.786;7.058;2024-01-30T04:32:33;102165.75;;;7.20;100.00
67109;BME280;54027;50.786;7.058;2024-01-30T04:34:58;102165.66;;;7.17;100.00
67109;BME280;54027;50.786;7.058;2024-01-30T04:37:24;102170.69;;;7.14;100.00
67109;BME280;54027;50.786;7.058;2024-01-30T04:39:50;102172.28;;;7.09;100.00
67109;BME280;54027;50.786;7.058;2024-01-30T04:42:15;102162.72;;;7.05;100.00
67109;BME280;54027;50.786;7.058;2024-01-30T04:44:41;102158.38;;;7.02;100.00
67109;BME280;54027;50.786;7.058;2024-01-30T04:47:06;102164.16;;;6.95;100.00
67109;BME280;54027;50.786;7.058;2024-01-30T04:49:34;102168.47;;;6.96;100.00
67109;BME280;54027;50.786;7.058;2024-01-30T04:51:59;102164.75;;;6.86;100.00
67109;BME280;54027;50.786;7.058;2024-01-30T04:54:25;102164.72;;;6.85;100.00
67109;BME280;54027;50.786;7.058;2024-01-30T04:56:51;102164.56;;;6.79;100.00
67109;BME280;54027;50.786;7.058;2024-01-30T04:59:16;102167.06;;;6.77;100.00
67109;BME280;54027;50.786;7.058;2024-01-30T05:01:41;102164.47;;;6.76;100.00
67109;BME280;54027;50.786;7.058;2024-01-30T05:04:07;102165.22;;;6.73;100.00
67109;BME280;54027;50.786;7.058;2024-01-30T05:06:33;102174.03;;;6.81;100.00
67109;BME280;54027;50.786;7.058;2024-01-30T05:08:58;102170.69;;;6.84;100.00
67109;BME280;54027;50.786;7.058;2024-01-30T05:11:23;102176.81;;;6.89;100.00
67109;BME280;54027;50.786;7.058;2024-01-30T05:13:49;102178.50;;;6.88;100.00
67109;BME280;54027;50.786;7.058;2024-01-30T05:16:14;102181.34;;;6.98;100.00
67109;BME280;54027;50.786;7.058;2024-01-30T05:18:39;102179.44;;;6.90;100.00
67109;BME280;54027;50.786;7.058;2024-01-30T05:21:05;102176.22;;;6.98;100.00
67109;BME280;54027;50.786;7.058;2024-01-30T05:23:30;102173.63;;;6.98;100.00
67109;BME280;54027;50.786;7.058;2024-01-30T05:25:56;102165.00;;;6.94;100.00
67109;BME280;54027;50.786;7.058;2024-01-30T05:28:21;102172.75;;;6.96;100.00
67109;BME280;54027;50.786;7.058;2024-01-30T05:30:47;102163.34;;;6.98;100.00
67109;BME280;54027;50.786;7.058;2024-01-30T05:33:12;102168.47;;;6.96;100.00
67109;BME280;54027;50.786;7.058;2024-01-30T05:35:38;102164.13;;;6.94;100.00
67109;BME280;54027;50.786;7.058;2024-01-30T05:38:04;102170.91;;;6.91;100.00
67109;BME280;54027;50.786;7.058;2024-01-30T05:40:30;102176.97;;;6.94;100.00
67109;BME280;54027;50.786;7.058;2024-01-30T05:42:56;102167.56;;;6.94;100.00
67109;BME280;54027;50.786;7.058;2024-01-30T05:45:23;102160.75;;;6.96;100.00
67109;BME280;54027;50.786;7.058;2024-01-30T05:47:48;102163.41;;;6.99;100.00
67109;BME280;54027;50.786;7.058;2024-01-30T05:50:14;102165.13;;;6.99;100.00
67109;BME280;54027;50.786;7.058;2024-01-30T05:52:40;102160.97;;;7.04;100.00
67109;BME280;54027;50.786;7.058;2024-01-30T05:55:05;102159.41;;;7.09;100.00
67109;BME280;54027;50.786;7.058;2024-01-30T05:57:31;102152.63;;;7.12;100.00
67109;BME280;54027;50.786;7.058;2024-01-30T05:59:56;102157.00;;;7.15;100.00
67109;BME280;54027;50.786;7.058;2024-01-30T06:02:22;102163.63;;;7.07;100.00
67109;BME280;54027;50.786;7.058;2024-01-30T06:04:47;102159.53;;;7.13;100.00
67109;BME280;54027;50.786;7.058;2024-01-30T06:07:12;102159.53;;;7.13;100.00
67109;BME280;54027;50.786;7.058;2024-01-30T06:09:39;102159.44;;;7.10;100.00
67109;BME280;54027;50.786;7.058;2024-01-30T06:12:06;102163.41;;;6.99;100.00
67109;BME280;54027;50.786;7.058;2024-01-30T06:14:31;102163.09;;;6.88;100.00
67109;BME280;54027;50.786;7.058;2024-01-30T06:16:57;102165.31;;;6.76;100.00
67109;BME280;54027;50.786;7.058;2024-01-30T06:19:23;102173.69;;;6.69;100.00
67109;BME280;54027;50.786;7.058;2024-01-30T06:21:48;102172.69;;;6.64;100.00
67109;BME280;54027;50.786;7.058;2024-01-30T06:24:14;102172.53;;;6.60;100.00
67109;BME280;54027;50.786;7.058;2024-01-30T06:26:39;102165.59;;;6.57;100.00
67109;BME280;54027;50.786;7.058;2024-01-30T06:29:04;102164.72;;;6.57;100.00
67109;BME280;54027;50.786;7.058;2024-01-30T06:31:30;102162.22;;;6.58;100.00
67109;BME280;54027;50.786;7.058;2024-01-30T06:33:56;102166.50;;;6.59;100.00
67109;BME280;54027;50.786;7.058;2024-01-30T06:36:21;102166.56;;;6.61;100.00
67109;BME280;54027;50.786;7.058;2024-01-30T06:38:46;102167.44;;;6.61;100.00
67109;BME280;54027;50.786;7.058;2024-01-30T06:41:12;102166.59;;;6.62;100.00
67109;BME280;54027;50.786;7.058;2024-01-30T06:43:37;102160.56;;;6.60;100.00
67109;BME280;54027;50.786;7.058;2024-01-30T06:46:03;102152.84;;;6.60;100.00
67109;BME280;54027;50.786;7.058;2024-01-30T06:48:28;102156.31;;;6.61;100.00
67109;BME280;54027;50.786;7.058;2024-01-30T06:50:54;102144.44;;;6.64;100.00
67109;BME280;54027;50.786;7.058;2024-01-30T06:53:19;102153.16;;;6.71;100.00
67109;BME280;54027;50.786;7.058;2024-01-30T06:55:45;102152.47;;;6.76;100.00
67109;BME280;54027;50.786;7.058;2024-01-30T06:58:10;102148.34;;;6.81;100.00
67109;BME280;54027;50.786;7.058;2024-01-30T07:00:35;102151.03;;;6.86;100.00
67109;BME280;54027;50.786;7.058;2024-01-30T07:03:01;102158.84;;;6.89;100.00
67109;BME280;54027;50.786;7.058;2024-01-30T07:05:27;102161.63;;;6.97;100.00
67109;BME280;54027;50.786;7.058;2024-01-30T07:07:52;102152.22;;;6.97;100.00
67109;BME280;54027;50.786;7.058;2024-01-30T07:10:17;102158.38;;;7.02;100.00
67109;BME280;54027;50.786;7.058;2024-01-30T07:12:43;102159.16;;;7.00;100.00
67109;BME280;54027;50.786;7.058;2024-01-30T07:15:08;102152.44;;;7.05;100.00
67109;BME280;54027;50.786;7.058;2024-01-30T07:17:35;102145.78;;;7.11;100.00
67109;BME280;54027;50.786;7.058;2024-01-30T07:20:01;102152.53;;;7.09;100.00
67109;BME280;54027;50.786;7.058;2024-01-30T07:22:29;102150.75;;;7.05;100.00
67109;BME280;54027;50.786;7.058;2024-01-30T07:24:54;102146.41;;;7.04;100.00
67109;BME280;54027;50.786;7.058;2024-01-30T07:27:20;102153.41;;;7.08;100.00
67109;BME280;54027;50.786;7.058;2024-01-30T07:29:46;102150.81;;;7.08;100.00
67109;BME280;54027;50.786;7.058;2024-01-30T07:32:12;102158.56;;;7.10;100.00
67109;BME280;54027;50.786;7.058;2024-01-30T07:34:37;102171.41;;;7.10;100.00
67109;BME280;54027;50.786;7.058;2024-01-30T07:37:03;102166.44;;;7.14;100.00
67109;BME280;54027;50.786;7.058;2024-01-30T07:39:28;102166.44;;;7.14;100.00
67109;BME280;54027;50.786;7.058;2024-01-30T07:41:53;102167.34;;;7.16;100.00
67109;BME280;54027;50.786;7.058;2024-01-30T07:44:20;102167.34;;;7.16;100.00
67109;BME280;54027;50.786;7.058;2024-01-30T07:46:45;102178.56;;;7.18;100.00
67109;BME280;54027;50.786;7.058;2024-01-30T07:49:10;102184.63;;;7.20;100.00
67109;BME280;54027;50.786;7.058;2024-01-30T07:51:36;102186.34;;;7.21;100.00
67109;BME280;54027;50.786;7.058;2024-01-30T07:54:01;102183.06;;;7.27;100.00
67109;BME280;54027;50.786;7.058;2024-01-30T07:56:26;102177.19;;;7.31;100.00
67109;BME280;54027;50.786;7.058;2024-01-30T07:58:52;102181.59;;;7.35;100.00
67109;BME280;54027;50.786;7.058;2024-01-30T08:01:18;102174.75;;;7.35;100.00
67109;BME280;54027;50.786;7.058;2024-01-30T08:03:43;102186.78;;;7.36;100.00
67109;BME280;54027;50.786;7.058;2024-01-30T08:06:09;102172.22;;;7.37;100.00
67109;BME280;54027;50.786;7.058;2024-01-30T08:08:35;102179.19;;;7.41;100.00
67109;BME280;54027;50.786;7.058;2024-01-30T08:11:00;102189.56;;;7.44;100.00
67109;BME280;54027;50.786;7.058;2024-01-30T08:13:25;102195.63;;;7.46;100.00
67109;BME280;54027;50.786;7.058;2024-01-30T08:15:51;102194.81;;;7.49;100.00
67109;BME280;54027;50.786;7.058;2024-01-30T08:18:16;102187.19;;;7.52;100.00
67109;BME280;54027;50.786;7.058;2024-01-30T08:20:41;102190.59;;;7.51;100.00
67109;BME280;54027;50.786;7.058;2024-01-30T08:23:07;102188.00;;;7.51;100.00
67109;BME280;54027;50.786;7.058;2024-01-30T08:25:32;102180.34;;;7.52;100.00
67109;BME280;54027;50.786;7.058;2024-01-30T08:27:58;102171.81;;;7.53;100.00
67109;BME280;54027;50.786;7.058;2024-01-30T08:30:23;102163.28;;;7.56;100.00
67109;BME280;54027;50.786;7.058;2024-01-30T08:32:48;102166.81;;;7.59;100.00
67109;BME280;54027;50.786;7.058;2024-01-30T08:35:14;102165.16;;;7.61;100.00
67109;BME280;54027;50.786;7.058;2024-01-30T08:37:41;102160.09;;;7.64;100.00
67109;BME280;54027;50.786;7.058;2024-01-30T08:40:07;102157.66;;;7.70;100.00
67109;BME280;54027;50.786;7.058;2024-01-30T08:42:33;102160.31;;;7.73;100.00
67109;BME280;54027;50.786;7.058;2024-01-30T08:44:59;102163.00;;;7.78;100.00
67109;BME280;54027;50.786;7.058;2024-01-30T08:47:24;102162.19;;;7.80;100.00
67109;BME280;54027;50.786;7.058;2024-01-30T08:49:50;102154.59;;;7.85;100.00
67109;BME280;54027;50.786;7.058;2024-01-30T08:52:16;102169.34;;;7.90;100.00
67109;BME280;54027;50.786;7.058;2024-01-30T08:54:41;102167.72;;;7.94;100.00
67109;BME280;54027;50.786;7.058;2024-01-30T08:57:07;102177.28;;;7.99;100.00
67109;BME280;54027;50.786;7.058;2024-01-30T08:59:32;102186.03;;;8.06;100.00
67109;BME280;54027;50.786;7.058;2024-01-30T09:01:58;102181.91;;;8.13;100.00
67109;BME280;54027;50.786;7.058;2024-01-30T09:04:24;102188.13;;;8.22;100.00
67109;BME280;54027;50.786;7.058;2024-01-30T09:06:50;102188.31;;;8.30;100.00
67109;BME280;54027;50.786;7.058;2024-01-30T09:09:16;102191.91;;;8.36;100.00
67109;BME280;54027;50.786;7.058;2024-01-30T09:11:41;102186.84;;;8.41;100.00
67109;BME280;54027;50.786;7.058;2024-01-30T09:14:07;102189.50;;;8.44;100.00
67109;BME280;54027;50.786;7.058;2024-01-30T09:16:32;102193.84;;;8.46;100.00
67109;BME280;54027;50.786;7.058;2024-01-30T09:18:57;102196.44;;;8.46;100.00
67109;BME280;54027;50.786;7.058;2024-01-30T09:21:23;102197.38;;;8.48;100.00
67109;BME280;54027;50.786;7.058;2024-01-30T09:23:48;102194.13;;;8.58;100.00
67109;BME280;54027;50.786;7.058;2024-01-30T09:26:14;102190.94;;;8.69;100.00
67109;BME280;54027;50.786;7.058;2024-01-30T09:28:39;102187.81;;;8.83;100.00
67109;BME280;54027;50.786;7.058;2024-01-30T09:31:09;102194.19;;;9.00;100.00
67109;BME280;54027;50.786;7.058;2024-01-30T09:33:34;102189.41;;;9.19;100.00
67109;BME280;54027;50.786;7.058;2024-01-30T09:36:01;102188.97;;;9.39;98.93
67109;BME280;54027;50.786;7.058;2024-01-30T09:38:26;102191.16;;;9.64;98.31
67109;BME280;54027;50.786;7.058;2024-01-30T09:40:54;102193.25;;;9.84;96.43
67109;BME280;54027;50.786;7.058;2024-01-30T09:43:23;102186.75;;;10.07;95.66
67109;BME280;54027;50.786;7.058;2024-01-30T09:45:50;102179.34;;;10.28;95.52
67109;BME280;54027;50.786;7.058;2024-01-30T09:48:16;102170.13;;;10.45;94.26
67109;BME280;54027;50.786;7.058;2024-01-30T09:50:41;102172.13;;;10.64;92.48
67109;BME280;54027;50.786;7.058;2024-01-30T09:53:08;102161.03;;;10.74;92.66
67109;BME280;54027;50.786;7.058;2024-01-30T09:55:35;102171.50;;;10.82;92.07
67109;BME280;54027;50.786;7.058;2024-01-30T09:58:01;102160.34;;;10.88;91.46
67109;BME280;54027;50.786;7.058;2024-01-30T10:00:26;102163.00;;;10.92;90.69
67109;BME280;54027;50.786;7.058;2024-01-30T10:02:52;102157.94;;;11.01;90.26
67109;BME280;54027;50.786;7.058;2024-01-30T10:05:19;102160.56;;;11.03;89.90
67109;BME280;54027;50.786;7.058;2024-01-30T10:07:54;102165.69;;;11.01;89.61
67109;BME280;54027;50.786;7.058;2024-01-30T10:10:24;102163.94;;;10.97;89.78
67109;BME280;54027;50.786;7.058;2024-01-30T10:12:49;102166.50;;;10.96;89.92
67109;BME280;54027;50.786;7.058;2024-01-30T10:15:15;102177.72;;;10.95;89.77
67109;BME280;54027;50.786;7.058;2024-01-30T10:17:40;102181.13;;;10.94;90.11
67109;BME280;54027;50.786;7.058;2024-01-30T10:20:06;102184.56;;;10.93;90.19
67109;BME280;54027;50.786;7.058;2024-01-30T10:22:33;102178.50;;;10.92;89.99
67109;BME280;54027;50.786;7.058;2024-01-30T10:25:00;102174.28;;;10.99;89.27
67109;BME280;54027;50.786;7.058;2024-01-30T10:27:26;102171.78;;;11.05;88.78
67109;BME280;54027;50.786;7.058;2024-01-30T10:29:52;102171.84;;;11.09;89.08
67109;BME280;54027;50.786;7.058;2024-01-30T10:32:17;102167.56;;;11.11;88.54
67109;BME280;54027;50.786;7.058;2024-01-30T10:34:43;102173.63;;;11.15;88.71
67109;BME280;54027;50.786;7.058;2024-01-30T10:37:10;102174.47;;;11.14;88.24
67109;BME280;54027;50.786;7.058;2024-01-30T10:39:39;102166.69;;;11.11;87.61
67109;BME280;54027;50.786;7.058;2024-01-30T10:42:05;102165.84;;;11.13;88.56
67109;BME280;54027;50.786;7.058;2024-01-30T10:44:38;102169.31;;;11.12;87.96
67109;BME280;54027;50.786;7.058;2024-01-30T10:47:12;102165.84;;;11.13;88.05
67109;BME280;54027;50.786;7.058;2024-01-30T10:49:40;102171.00;;;11.13;88.02
67109;BME280;54027;50.786;7.058;2024-01-30T10:52:08;102180.44;;;11.07;88.09
67109;BME280;54027;50.786;7.058;2024-01-30T10:54:34;102176.06;;;11.04;88.52
67109;BME280;54027;50.786;7.058;2024-01-30T10:57:00;102182.91;;;10.98;88.38
67109;BME280;54027;50.786;7.058;2024-01-30T10:59:29;102182.09;;;11.02;88.92
67109;BME280;54027;50.786;7.058;2024-01-30T11:01:57;102176.03;;;11.01;89.12
67109;BME280;54027;50.786;7.058;2024-01-30T11:04:22;102162.19;;;10.96;88.41
67109;BME280;54027;50.786;7.058;2024-01-30T11:06:49;102167.41;;;10.99;88.13
67109;BME280;54027;50.786;7.058;2024-01-30T11:09:17;102167.44;;;11.02;87.68
67109;BME280;54027;50.786;7.058;2024-01-30T11:11:56;102168.31;;;11.04;87.95
67109;BME280;54027;50.786;7.058;2024-01-30T11:14:29;102157.13;;;11.04;88.20
67109;BME280;54027;50.786;7.058;2024-01-30T11:16:59;102159.75;;;11.07;87.96
67109;BME280;54027;50.786;7.058;2024-01-30T11:19:25;102164.09;;;11.11;88.16
67109;BME280;54027;50.786;7.058;2024-01-30T11:21:53;102151.25;;;11.18;87.32
67109;BME280;54027;50.786;7.058;2024-01-30T11:24:20;102151.31;;;11.26;87.35
67109;BME280;54027;50.786;7.058;2024-01-30T11:26:58;102140.97;;;11.26;87.00
67109;BME280;54027;50.786;7.058;2024-01-30T11:29:25;102136.63;;;11.25;86.44
67109;BME280;54027;50.786;7.058;2024-01-30T11:31:54;102135.81;;;11.29;86.93
67109;BME280;54027;50.786;7.058;2024-01-30T11:34:20;102125.50;;;11.30;86.36
67109;BME280;54027;50.786;7.058;2024-01-30T11:36:51;102132.47;;;11.38;86.98
67109;BME280;54027;50.786;7.058;2024-01-30T11:39:20;102130.00;;;11.47;86.38
67109;BME280;54027;50.786;7.058;2024-01-30T11:41:46;102122.31;;;11.56;85.76
67109;BME280;54027;50.786;7.058;2024-01-30T11:44:12;102129.25;;;11.57;85.83
67109;BME280;54027;50.786;7.058;2024-01-30T11:46:38;102119.81;;;11.66;85.83
67109;BME280;54027;50.786;7.058;2024-01-30T11:49:03;102113.81;;;11.69;84.90
67109;BME280;54027;50.786;7.058;2024-01-30T11:51:31;102112.22;;;11.86;84.84
67109;BME280;54027;50.786;7.058;2024-01-30T11:53:57;102108.81;;;11.93;85.11
67109;BME280;54027;50.786;7.058;2024-01-30T11:56:24;102098.41;;;11.90;84.50
67109;BME280;54027;50.786;7.058;2024-01-30T11:58:49;102094.19;;;12.00;84.27
67109;BME280;54027;50.786;7.058;2024-01-30T12:01:16;102097.63;;;11.97;84.11
67109;BME280;54027;50.786;7.058;2024-01-30T12:03:42;102095.06;;;12.03;84.00
67109;BME280;54027;50.786;7.058;2024-01-30T12:06:08;102102.88;;;12.06;84.69
67109;BME280;54027;50.786;7.058;2024-01-30T12:08:34;102096.81;;;12.06;84.07
67109;BME280;54027;50.786;7.058;2024-01-30T12:10:59;102101.06;;;11.95;84.03
67109;BME280;54027;50.786;7.058;2024-01-30T12:13:28;102114.88;;;11.92;85.24
67109;BME280;54027;50.786;7.058;2024-01-30T12:15:54;102110.59;;;12.00;85.15
67109;BME280;54027;50.786;7.058;2024-01-30T12:18:20;102118.44;;;12.09;85.45
67109;BME280;54027;50.786;7.058;2024-01-30T12:20:45;102099.47;;;12.13;85.08
67109;BME280;54027;50.786;7.058;2024-01-30T12:23:12;102115.09;;;12.22;85.34
67109;BME280;54027;50.786;7.058;2024-01-30T12:25:38;102102.13;;;12.22;84.08
67109;BME280;54027;50.786;7.058;2024-01-30T12:28:03;102103.84;;;12.22;83.99
67109;BME280;54027;50.786;7.058;2024-01-30T12:30:29;102108.16;;;12.26;84.25
67109;BME280;54027;50.786;7.058;2024-01-30T12:32:55;102103.03;;;12.35;84.22
67109;BME280;54027;50.786;7.058;2024-01-30T12:35:20;102101.34;;;12.41;83.76
67109;BME280;54027;50.786;7.058;2024-01-30T12:37:47;102105.69;;;12.42;83.66
67109;BME280;54027;50.786;7.058;2024-01-30T12:40:14;102123.84;;;12.44;84.58
67109;BME280;54027;50.786;7.058;2024-01-30T12:42:40;102128.19;;;12.50;84.32